Time;durP1;ratioP1;P1;durP2;ratioP2;P2;SDS_P1;SDS_P2;PMS_P1;PMS_P2;Temp;Humidity;BMP_temperature;BMP_pressure;BME280_temperature;BME280_humidity;BME280_pressure;Samples;Min_cycle;Max_cycle;Signal;HPM_P1;HPM_P2
2022/04/18 00:01:09;;;;;;;9.10;7.07;;;;;;;9.12;nan;101965.94;5052214;28;20452;-54
2022/04/18 00:03:35;;;;;;;8.57;7.50;;;;;;;9.04;nan;101950.25;5051292;28;20107;-52
2022/04/18 00:06:00;;;;;;;12.15;8.02;;;;;;;8.97;nan;101939.78;5052649;28;20389;-53
2022/04/18 00:08:25;;;;;;;13.60;8.02;;;;;;;8.89;nan;101939.88;5050879;28;20477;-53
2022/04/18 00:10:50;;;;;;;9.27;7.93;;;;;;;8.77;nan;101932.09;5050916;28;20067;-50
2022/04/18 00:13:16;;;;;;;11.32;7.72;;;;;;;8.60;nan;101920.84;5051970;28;20120;-53
2022/04/18 00:15:41;;;;;;;8.38;7.45;;;;;;;8.52;nan;101933.16;5052083;28;20484;-54
2022/04/18 00:18:06;;;;;;;9.10;7.43;;;;;;;8.13;nan;101875.63;5034069;28;20037;-51
2022/04/18 00:20:32;;;;;;;8.45;7.53;;;;;;;8.40;nan;101933.22;5051915;28;20099;-52
2022/04/18 00:22:57;;;;;;;8.85;7.38;;;;;;;8.38;nan;101937.59;5052188;28;20045;-53
2022/04/18 00:25:22;;;;;;;9.75;7.75;;;;;;;8.39;nan;101934.09;5050754;28;20037;-55
2022/04/18 00:27:49;;;;;;;9.35;7.50;;;;;;;8.40;nan;101927.97;5051797;28;20029;-53
2022/04/18 00:30:14;;;;;;;9.85;7.38;;;;;;;8.29;nan;101890.47;5050426;28;20040;-54
2022/04/18 00:32:40;;;;;;;9.60;7.53;;;;;;;8.62;nan;101932.19;5051918;28;20045;-54
2022/04/18 00:35:06;;;;;;;10.57;8.18;;;;;;;8.56;nan;101913.84;5051998;28;20037;-55
2022/04/18 00:37:32;;;;;;;10.23;8.40;;;;;;;8.67;nan;101927.78;5051758;28;20040;-51
2022/04/18 00:39:57;;;;;;;10.60;7.97;;;;;;;8.27;nan;101872.09;5050196;28;20025;-52
2022/04/18 00:42:23;;;;;;;9.75;7.90;;;;;;;8.54;nan;101918.25;5033753;28;20048;-53
2022/04/18 00:44:48;;;;;;;8.98;7.60;;;;;;;8.60;nan;101925.22;5050366;28;20037;-56
2022/04/18 00:47:13;;;;;;;10.05;8.48;;;;;;;8.57;nan;101933.97;5051801;28;20067;-52
2022/04/18 00:49:38;;;;;;;10.00;8.07;;;;;;;8.53;nan;101932.25;5051813;28;20040;-51
2022/04/18 00:52:05;;;;;;;9.48;7.93;;;;;;;8.46;nan;101920.06;5051650;28;20072;-51
2022/04/18 00:54:32;;;;;;;11.85;8.68;;;;;;;8.31;nan;101910.53;5052443;28;20060;-53
2022/04/18 00:56:57;;;;;;;9.88;8.88;;;;;;;8.33;nan;101914.03;5054487;28;20441;-57
2022/04/18 00:59:22;;;;;;;9.63;8.52;;;;;;;7.93;nan;101858.28;5055444;28;20041;-53
2022/04/18 01:01:48;;;;;;;10.98;8.43;;;;;;;8.19;nan;101899.22;5054546;28;20423;-54
2022/04/18 01:04:13;;;;;;;14.38;8.48;;;;;;;8.18;nan;101915.81;5054455;28;20468;-52
2022/04/18 01:06:39;;;;;;;10.45;8.65;;;;;;;7.61;nan;101839.22;5055117;28;20071;-52
2022/04/18 01:09:04;;;;;;;9.30;8.30;;;;;;;7.59;nan;101843.56;5053942;28;20116;-56
2022/04/18 01:11:30;;;;;;;10.20;8.57;;;;;;;7.69;nan;101884.59;5055382;28;20037;-51
2022/04/18 01:14:00;;;;;;;9.93;8.85;;;;;;;7.67;nan;101882.88;5054119;28;20091;-55
2022/04/18 01:16:25;;;;;;;9.87;8.57;;;;;;;7.26;nan;101831.50;5054400;28;20396;-53
2022/04/18 01:18:51;;;;;;;11.88;8.93;;;;;;;7.70;nan;101893.34;5054327;28;20275;-55
2022/04/18 01:21:18;;;;;;;11.00;9.43;;;;;;;7.36;nan;101830.56;5055428;28;20505;-51
2022/04/18 01:23:44;;;;;;;9.35;7.75;;;;;;;7.74;nan;101895.06;5054041;28;20116;-52
2022/04/18 01:29:00;;;;;;;9.88;8.60;;;;;;;7.37;nan;101828.84;5055205;28;20048;-51
2022/04/18 01:31:31;;;;;;;8.45;7.50;;;;;;;7.84;nan;101899.38;5054881;28;20113;-52
2022/04/18 01:33:57;;;;;;;10.10;8.87;;;;;;;7.85;nan;101901.16;5055255;28;20033;-53
2022/04/18 01:36:23;;;;;;;9.50;8.48;;;;;;;7.84;nan;101887.16;5054972;28;20067;-54
2022/04/18 01:38:49;;;;;;;9.68;8.63;;;;;;;7.79;nan;101894.16;5054329;28;20537;-55
2022/04/18 01:41:14;;;;;;;10.10;8.68;;;;;;;7.73;nan;101891.59;5054659;28;20044;-53
2022/04/18 01:43:39;;;;;;;10.85;9.07;;;;;;;7.70;nan;101891.59;5054453;28;20037;-50
2022/04/18 01:46:05;;;;;;;10.13;8.70;;;;;;;7.22;nan;101834.13;5053587;28;20086;-50
2022/04/18 01:48:30;;;;;;;11.50;8.90;;;;;;;7.53;nan;101893.38;5054547;28;20037;-53
2022/04/18 01:50:56;;;;;;;10.07;8.50;;;;;;;7.45;nan;101881.19;5054428;28;20417;-52
2022/04/18 01:53:21;;;;;;;12.38;9.02;;;;;;;7.46;nan;101888.19;5054118;28;20025;-56
2022/04/18 01:55:46;;;;;;;9.98;8.70;;;;;;;7.02;nan;101821.09;5054464;28;20033;-53
2022/04/18 01:58:12;;;;;;;10.15;8.20;;;;;;;7.40;nan;101875.09;5054210;28;20083;-52
2022/04/18 02:00:37;;;;;;;12.60;9.45;;;;;;;6.98;nan;101811.47;5054395;28;20036;-54
2022/04/18 02:03:03;;;;;;;11.93;8.50;;;;;;;7.29;nan;101867.28;5053094;28;20112;-54
2022/04/18 02:05:28;;;;;;;10.45;8.18;;;;;;;7.24;nan;101866.41;5053256;28;20098;-54
2022/04/18 02:07:53;;;;;;;10.50;8.70;;;;;;;7.31;nan;101876.00;5053579;28;20065;-51
2022/04/18 02:10:19;;;;;;;10.45;8.25;;;;;;;6.98;nan;101813.22;5053956;28;20075;-50
2022/04/18 02:12:44;;;;;;;10.23;8.10;;;;;;;7.18;nan;101851.56;5054517;28;20047;-53
2022/04/18 02:15:10;;;;;;;10.43;8.90;;;;;;;7.11;nan;101852.47;5054173;28;20425;-56
2022/04/18 02:17:35;;;;;;;9.88;8.57;;;;;;;6.95;nan;101839.41;5036486;28;20490;-54
2022/04/18 02:20:00;;;;;;;9.52;7.95;;;;;;;6.71;nan;101796.69;5052660;28;20037;-52
2022/04/18 02:22:27;;;;;;;9.85;8.27;;;;;;;7.10;nan;101879.53;5053969;28;20060;-52
2022/04/18 02:24:56;;;;;;;10.50;8.60;;;;;;;7.02;nan;101857.72;5052767;28;20029;-54
2022/04/18 02:27:21;;;;;;;9.50;8.07;;;;;;;6.99;nan;101862.09;5054122;28;20065;-53
2022/04/18 02:29:47;;;;;;;10.23;8.55;;;;;;;6.99;nan;101868.22;5053796;28;20138;-51
2022/04/18 02:34:56;;;;;;;8.82;7.45;;;;;;;7.01;nan;101876.03;5052613;28;20068;-53
2022/04/18 02:37:21;;;;;;;10.10;8.20;;;;;;;6.91;nan;101856.00;5052108;28;20477;-52
2022/04/18 02:39:46;;;;;;;12.75;8.27;;;;;;;6.60;nan;101829.84;5053586;28;20072;-53
2022/04/18 02:42:11;;;;;;;8.95;7.60;;;;;;;6.77;nan;101841.16;5053373;28;20056;-49
2022/04/18 02:44:37;;;;;;;8.52;7.63;;;;;;;6.90;nan;101868.22;5053500;28;20072;-51
2022/04/18 02:47:02;;;;;;;8.63;7.65;;;;;;;6.86;nan;101863.84;5053450;28;20041;-50
2022/04/18 02:49:27;;;;;;;9.68;7.95;;;;;;;5.68;nan;101680.81;5068656;28;20071;-49
2022/04/18 02:51:53;;;;;;;9.45;7.72;;;;;;;6.50;nan;101804.59;5051661;28;20040;-55
2022/04/18 02:54:18;;;;;;;8.43;7.53;;;;;;;6.77;nan;101853.41;5051900;28;20079;-53
2022/04/18 02:56:43;;;;;;;9.05;6.93;;;;;;;6.45;nan;101800.22;5053343;28;20079;-54
2022/04/18 02:59:09;;;;;;;9.35;7.43;;;;;;;6.66;nan;101842.94;5053400;28;20112;-53
2022/04/18 03:01:34;;;;;;;9.27;8.02;;;;;;;6.69;nan;101852.53;5053130;28;20362;-55
2022/04/18 03:03:59;;;;;;;8.40;7.60;;;;;;;6.34;nan;101794.97;5034309;28;20499;-56
2022/04/18 03:06:25;;;;;;;8.90;8.02;;;;;;;6.63;nan;101857.75;5053145;28;20076;-55
2022/04/18 03:08:50;;;;;;;7.05;6.35;;;;;;;6.55;nan;101847.31;5053209;28;20648;-51
2022/04/18 03:11:15;;;;;;;9.05;7.40;;;;;;;6.49;nan;101862.13;5051653;28;20060;-49
2022/04/18 03:13:44;;;;;;;7.95;7.15;;;;;;;6.12;nan;101786.28;5052451;28;20132;-54
2022/04/18 03:16:11;;;;;;;7.57;6.88;;;;;;;6.33;nan;101832.47;5051292;28;20110;-56
2022/04/18 03:18:37;;;;;;;7.82;6.95;;;;;;;6.37;nan;101841.19;5052408;28;20431;-54
2022/04/18 03:21:03;;;;;;;7.43;6.63;;;;;;;5.97;nan;101770.56;5052653;28;20037;-54
2022/04/18 03:23:29;;;;;;;8.57;7.72;;;;;;;6.25;nan;101818.50;5051681;28;20040;-53
2022/04/18 03:25:55;;;;;;;8.15;6.90;;;;;;;6.29;nan;101837.69;5052564;28;20044;-55
2022/04/18 03:28:20;;;;;;;8.10;6.97;;;;;;;6.27;nan;101837.72;5052934;28;20159;-52
2022/04/18 03:30:46;;;;;;;9.32;6.47;;;;;;;6.23;nan;101828.09;5052769;28;20524;-50
2022/04/18 03:33:11;;;;;;;9.60;7.40;;;;;;;6.31;nan;101830.72;5050840;28;20032;-56
2022/04/18 03:35:36;;;;;;;7.00;6.13;;;;;;;6.32;nan;101832.47;5052419;28;20134;-56
2022/04/18 03:40:46;;;;;;;7.28;6.40;;;;;;;6.30;nan;101818.53;5052602;28;20043;-52
2022/04/18 03:43:11;;;;;;;6.93;6.00;;;;;;;6.32;nan;101820.28;5052093;28;20436;-49
2022/04/18 03:45:37;;;;;;;7.65;6.53;;;;;;;6.35;nan;101817.66;5052705;28;20048;-51
2022/04/18 03:48:03;;;;;;;6.65;6.05;;;;;;;5.96;nan;101755.75;5052296;28;20040;-50
2022/04/18 03:50:29;;;;;;;6.20;5.60;;;;;;;5.96;nan;101757.50;5052533;28;20136;-52
2022/04/18 03:52:54;;;;;;;8.77;5.68;;;;;;;6.33;nan;101815.91;5050337;28;20124;-52
2022/04/18 03:55:19;;;;;;;7.63;5.30;;;;;;;6.33;nan;101811.56;5052165;28;20096;-53
2022/04/18 03:57:45;;;;;;;7.10;5.85;;;;;;;5.83;nan;101735.69;5050944;28;20128;-52
2022/04/18 04:00:11;;;;;;;11.38;5.97;;;;;;;6.08;nan;101797.59;5052031;28;20041;-54
2022/04/18 04:02:37;;;;;;;6.43;5.68;;;;;;;5.83;nan;101753.09;5051116;28;20528;-53
2022/04/18 04:05:03;;;;;;;7.50;5.25;;;;;;;6.14;nan;101826.34;5052146;28;20037;-54
2022/04/18 04:07:28;;;;;;;9.20;5.50;;;;;;;5.75;nan;101755.69;5052396;28;20093;-51
2022/04/18 04:09:53;;;;;;;7.65;5.35;;;;;;;6.10;nan;101821.13;5052093;28;20408;-51
2022/04/18 04:12:26;;;;;;;9.07;6.18;;;;;;;6.03;nan;101827.22;5051653;28;20040;-53
2022/04/18 04:14:52;;;;;;;6.63;5.60;;;;;;;5.57;nan;101750.44;5051410;28;20412;-52
2022/04/18 04:17:17;;;;;;;5.72;5.15;;;;;;;5.52;nan;101765.22;5050488;28;20490;-50
2022/04/18 04:19:44;;;;;;;7.80;5.88;;;;;;;5.68;nan;101807.06;5052039;28;20120;-52
2022/04/18 04:22:09;;;;;;;5.93;5.32;;;;;;;5.76;nan;101827.97;5051494;28;20041;-50
2022/04/18 04:24:35;;;;;;;5.72;5.18;;;;;;;5.80;nan;101839.31;5051393;28;20412;-51
2022/04/18 04:27:00;;;;;;;6.85;5.18;;;;;;;5.81;nan;101849.75;5051722;28;20033;-54
2022/04/18 04:29:25;;;;;;;6.30;4.78;;;;;;;5.44;nan;101767.81;5050764;28;20396;-51
2022/04/18 04:31:50;;;;;;;8.13;5.18;;;;;;;5.55;nan;101776.53;5051650;28;20040;-51
2022/04/18 04:34:16;;;;;;;5.75;5.15;;;;;;;5.97;nan;101841.13;5051627;28;20171;-51
2022/04/18 04:36:41;;;;;;;6.25;5.55;;;;;;;5.60;nan;101774.81;5051876;28;20110;-52
2022/04/18 04:39:07;;;;;;;6.40;4.88;;;;;;;5.91;nan;101833.28;5050367;28;20076;-54
2022/04/18 04:41:32;;;;;;;5.53;5.00;;;;;;;5.52;nan;101773.03;5050171;28;20041;-52
2022/04/18 04:43:58;;;;;;;6.28;5.60;;;;;;;5.88;nan;101838.50;5046726;28;20075;-48
2022/04/18 04:46:23;;;;;;;6.53;5.55;;;;;;;5.82;nan;101827.13;5032349;28;20033;-49
2022/04/18 04:48:48;;;;;;;5.82;5.18;;;;;;;5.67;nan;101801.81;5050400;28;20048;-50
2022/04/18 04:51:14;;;;;;;7.30;4.63;;;;;;;5.82;nan;101828.00;5051359;28;20064;-51
2022/04/18 04:53:39;;;;;;;5.22;4.72;;;;;;;5.72;nan;101817.53;5051575;28;20033;-48
2022/04/18 04:56:04;;;;;;;6.03;5.43;;;;;;;5.77;nan;101819.28;5050796;28;20060;-51
2022/04/18 04:58:30;;;;;;;5.90;5.25;;;;;;;5.41;nan;101754.75;5066403;28;20049;-53
2022/04/18 05:00:56;;;;;;;5.82;5.15;;;;;;;5.53;nan;101777.41;5050556;28;20788;-50
2022/04/18 05:03:21;;;;;;;5.55;4.97;;;;;;;5.82;nan;101814.94;5050690;28;20021;-49
2022/04/18 05:05:47;;;;;;;5.55;4.65;;;;;;;5.84;nan;101807.97;5051162;28;20520;-50
2022/04/18 05:08:12;;;;;;;4.95;4.45;;;;;;;5.52;nan;101739.09;5033070;28;20036;-52
2022/04/18 05:10:38;;;;;;;6.75;5.35;;;;;;;5.92;nan;101816.75;5050850;28;20041;-51
2022/04/18 05:13:04;;;;;;;7.15;4.78;;;;;;;5.68;nan;101760.03;5050510;28;20029;-49
2022/04/18 05:15:31;;;;;;;6.13;4.63;;;;;;;5.63;nan;101743.47;5050831;28;20041;-51
2022/04/18 05:17:56;;;;;;;6.60;4.53;;;;;;;5.67;nan;101740.00;5049380;28;20041;-52
2022/04/18 05:20:21;;;;;;;5.22;4.72;;;;;;;6.13;nan;101803.69;5049746;28;20393;-52
2022/04/18 05:22:47;;;;;;;7.60;4.82;;;;;;;5.95;nan;101742.69;5049432;28;20026;-53
2022/04/18 05:25:15;;;;;;;5.70;4.50;;;;;;;6.32;nan;101812.44;5050766;28;20037;-51
2022/04/18 05:27:41;;;;;;;5.15;4.65;;;;;;;6.49;nan;101815.03;5049188;28;20063;-55
2022/04/18 05:30:07;;;;;;;4.70;4.30;;;;;;;6.57;nan;101816.78;5032125;28;20037;-50
2022/04/18 05:32:32;;;;;;;4.43;3.92;;;;;;;6.26;nan;101754.91;5048712;28;20497;-50
2022/04/18 05:34:58;;;;;;;4.00;3.70;;;;;;;6.79;nan;101815.91;5050632;28;20040;-51
2022/04/18 05:37:23;;;;;;;5.05;4.32;;;;;;;6.57;nan;101766.19;5050697;28;20033;-53
2022/04/18 05:39:48;;;;;;;5.28;4.18;;;;;;;7.04;nan;101816.69;5051671;28;20025;-51
2022/04/18 05:42:13;;;;;;;7.00;4.38;;;;;;;7.12;nan;101814.09;5054795;28;20036;-53
2022/04/18 05:44:39;;;;;;;5.28;4.22;;;;;;;7.21;nan;101800.94;5052796;28;20415;-53
2022/04/18 05:47:04;;;;;;;5.40;4.28;;;;;;;7.18;nan;101765.16;5054342;28;20041;-54
2022/04/18 05:49:30;;;;;;;5.25;4.47;;;;;;;7.48;nan;101773.75;5054478;28;20067;-55
2022/04/18 05:51:55;;;;;;;7.90;5.20;;;;;;;8.00;nan;101832.03;5053363;28;20082;-56
2022/04/18 05:54:20;;;;;;;10.05;6.70;;;;;;;7.91;nan;101786.63;5054142;28;20084;-52
2022/04/18 05:56:46;;;;;;;13.25;7.13;;;;;;;8.04;nan;101779.56;5054387;28;20032;-49
2022/04/18 05:59:11;;;;;;;10.73;7.03;;;;;;;8.23;nan;101780.28;5054247;28;20029;-52
2022/04/18 06:01:36;;;;;;;12.13;7.80;;;;;;;8.78;nan;101838.44;5052161;28;20029;-48
2022/04/18 06:04:02;;;;;;;12.38;7.13;;;;;;;9.01;nan;101844.34;5054058;28;20033;-50
2022/04/18 06:06:27;;;;;;;9.20;6.55;;;;;;;9.18;nan;101839.78;5054124;28;20112;-51
2022/04/18 06:08:54;;;;;;;8.07;5.60;;;;;;;9.41;nan;101855.28;5054074;28;20071;-49
2022/04/18 06:11:19;;;;;;;6.88;4.25;;;;;;;9.59;nan;101852.47;5053438;28;20044;-49
2022/04/18 06:13:44;;;;;;;7.05;4.80;;;;;;;9.46;nan;101803.53;5054029;28;20474;-49
2022/04/18 06:16:10;;;;;;;4.65;3.80;;;;;;;9.52;nan;101799.09;5053544;28;20029;-51
2022/04/18 06:18:35;;;;;;;5.97;3.67;;;;;;;10.00;nan;101850.16;5052954;28;20090;-51
2022/04/18 06:21:00;;;;;;;3.33;2.97;;;;;;;10.20;nan;101854.28;5054041;28;20033;-51
2022/04/18 06:23:26;;;;;;;3.97;3.38;;;;;;;10.23;nan;101841.97;5053508;28;20505;-52
2022/04/18 06:25:51;;;;;;;3.90;3.42;;;;;;;10.38;nan;101856.66;5053921;28;20493;-51
2022/04/18 06:28:18;;;;;;;4.72;3.65;;;;;;;10.11;nan;101793.00;5052901;28;20051;-49
2022/04/18 06:30:43;;;;;;;4.53;3.38;;;;;;;10.54;nan;101842.34;5053721;28;20127;-52
2022/04/18 06:33:10;;;;;;;4.53;3.72;;;;;;;10.28;nan;101791.88;5053914;28;20112;-50
2022/04/18 06:35:36;;;;;;;3.92;3.35;;;;;;;10.67;nan;101851.78;5036018;28;20052;-52
2022/04/18 06:38:01;;;;;;;3.75;3.42;;;;;;;10.65;nan;101841.25;5053240;28;20036;-49
2022/04/18 06:40:26;;;;;;;3.55;3.15;;;;;;;10.79;nan;101869.16;5054077;28;20041;-48
2022/04/18 06:42:52;;;;;;;5.20;3.88;;;;;;;10.86;nan;101857.63;5052190;28;20037;-53
2022/04/18 06:45:17;;;;;;;4.07;3.33;;;;;;;10.85;nan;101843.56;5052196;28;20473;-47
2022/04/18 06:47:42;;;;;;;4.00;3.60;;;;;;;10.64;nan;101801.81;5053519;28;20083;-50
2022/04/18 06:50:11;;;;;;;4.13;3.38;;;;;;;10.83;nan;101808.47;5053390;28;20087;-51
2022/04/18 06:52:38;;;;;;;4.00;3.60;;;;;;;11.23;nan;101858.69;5051178;28;20025;-49
2022/04/18 06:55:03;;;;;;;4.95;3.97;;;;;;;11.45;nan;101873.19;5053316;28;20064;-50
2022/04/18 06:57:29;;;;;;;3.45;3.15;;;;;;;11.45;nan;101824.84;5053414;28;20078;-52
2022/04/18 06:59:55;;;;;;;4.32;3.13;;;;;;;12.21;nan;101875.09;5053103;28;20041;-52
2022/04/18 07:02:20;;;;;;;4.22;3.42;;;;;;;12.41;nan;101804.22;5052994;28;20070;-51
2022/04/18 07:04:46;;;;;;;5.57;3.30;;;;;;;13.19;nan;101813.63;5052930;28;20032;-50
2022/04/18 07:07:11;;;;;;;3.63;3.00;;;;;;;14.31;nan;101883.53;5053265;28;20043;-50
2022/04/18 07:09:36;;;;;;;3.60;3.28;;;;;;;13.66;nan;101656.19;5052610;28;20064;-52
2022/04/18 07:12:02;;;;;;;3.25;2.95;;;;;;;15.68;nan;101878.84;5052947;28;20033;-49
2022/04/18 07:14:27;;;;;;;3.20;2.92;;;;;;;16.17;nan;101819.41;5052813;28;20060;-54
2022/04/18 07:16:53;;;;;;;3.30;3.00;;;;;;;16.74;nan;101832.13;5053012;28;20130;-52
2022/04/18 07:19:18;;;;;;;2.83;2.63;;;;;;;17.28;nan;101878.56;5052912;28;20470;-52
2022/04/18 07:21:43;;;;;;;3.45;3.15;;;;;;;17.37;nan;101871.03;5051570;28;20448;-52
2022/04/18 07:24:10;;;;;;;4.07;2.92;;;;;;;17.32;nan;101878.38;5051550;28;20043;-52
2022/04/18 07:26:35;;;;;;;4.43;2.42;;;;;;;17.69;nan;101890.06;5052284;28;20029;-51
2022/04/18 07:29:00;;;;;;;3.45;3.15;;;;;;;17.81;nan;101877.06;5052875;28;20063;-51
2022/04/18 07:31:26;;;;;;;4.32;2.45;;;;;;;18.06;nan;101870.59;5052594;28;20417;-55
2022/04/18 07:33:51;;;;;;;4.03;3.25;;;;;;;18.31;nan;101880.03;5051511;28;20071;-52
2022/04/18 07:36:16;;;;;;;2.90;2.70;;;;;;;18.49;nan;101814.31;5052565;28;20461;-57
2022/04/18 07:38:51;;;;;;;7.70;2.90;;;;;;;18.89;nan;101875.38;5052740;28;20029;-52
2022/04/18 07:41:22;;;;;;;3.15;2.92;;;;;;;18.81;nan;101815.34;5052563;28;20044;-51
2022/04/18 07:43:47;;;;;;;;;;;;;;;19.35;nan;101878.38;5052047;28;20450;-51
2022/04/18 07:46:15;;;;;;;4.03;2.95;;;;;;;19.33;nan;101834.84;5052259;28;20031;-53
2022/04/18 07:48:41;;;;;;;6.32;3.45;;;;;;;19.40;nan;101836.28;5051293;28;20036;-51
2022/04/18 07:53:50;;;;;;;2.70;2.33;;;;;;;19.22;nan;101880.81;5052392;28;20088;-51
2022/04/18 07:56:15;;;;;;;4.35;2.65;;;;;;;18.90;nan;101834.44;5051802;28;20080;-48
2022/04/18 07:58:41;;;;;;;4.13;3.00;;;;;;;19.05;nan;101873.69;5050943;28;20120;-48
2022/04/18 08:01:06;;;;;;;3.95;2.92;;;;;;;19.18;nan;101871.22;5050717;28;20068;-53
2022/04/18 08:03:35;;;;;;;4.28;3.25;;;;;;;19.08;nan;101835.28;5051725;28;20055;-48
2022/04/18 08:06:01;;;;;;;2.85;2.10;;;;;;;19.57;nan;101868.31;5052142;28;20375;-52
2022/04/18 08:08:26;;;;;;;3.65;2.20;;;;;;;19.67;nan;101871.34;5051367;28;20036;-52
2022/04/18 08:10:54;;;;;;;2.45;1.77;;;;;;;20.00;nan;101872.16;5051508;28;20498;-54
2022/04/18 08:13:20;;;;;;;2.20;2.00;;;;;;;20.19;nan;101868.41;5050662;28;20044;-52
2022/04/18 08:15:45;;;;;;;3.88;1.83;;;;;;;20.68;nan;101829.03;5051946;28;20033;-54
2022/04/18 08:18:11;;;;;;;2.25;1.70;;;;;;;21.47;nan;101879.63;5051852;28;20118;-53
2022/04/18 08:20:36;;;;;;;2.45;1.83;;;;;;;21.80;nan;101838.19;5051869;28;20414;-52
2022/04/18 08:23:02;;;;;;;2.00;1.80;;;;;;;22.04;nan;101834.94;5051192;28;20032;-52
2022/04/18 08:25:27;;;;;;;2.83;1.70;;;;;;;22.18;nan;101873.31;5051570;28;20041;-52
2022/04/18 08:27:52;;;;;;;3.08;1.95;;;;;;;;;;5051467;28;20505;-51
2022/04/18 08:30:18;;;;;;;2.20;1.70;;;;;;;;;;5051675;28;20416;-52
2022/04/18 08:32:43;;;;;;;1.95;1.73;;;;;;;;;;5050358;28;20072;-53
2022/04/18 08:35:09;;;;;;;2.75;1.77;;;;;;;23.19;nan;101870.16;5051625;28;20077;-51
2022/04/18 08:37:35;;;;;;;2.92;2.00;;;;;;;;;;5051690;28;20025;-55
2022/04/18 08:40:07;;;;;;;1.98;1.70;;;;;;;;;;5051461;28;20139;-50
2022/04/18 08:42:37;;;;;;;3.30;1.83;;;;;;;;;;5051874;28;20040;-49
2022/04/18 08:45:04;;;;;;;3.67;2.10;;;;;;;;;;5051366;28;20438;-51
2022/04/18 08:52:57;;;;;;;2.78;2.20;;;;;;;;;;5051529;28;20106;-50
2022/04/18 08:55:22;;;;;;;2.25;2.08;;;;;;;;;;5050933;28;20045;-48
2022/04/18 08:57:48;;;;;;;2.38;2.17;;;;;;;24.24;nan;101826.75;5051617;28;20040;-54
2022/04/18 09:00:13;;;;;;;2.40;2.05;;;;;;;24.05;nan;101823.69;5050046;28;20413;-50
2022/04/18 09:02:39;;;;;;;2.97;2.30;;;;;;;24.01;nan;101804.22;5051124;28;20504;-53
2022/04/18 09:05:10;;;;;;;2.30;2.00;;;;;;;24.18;nan;101816.44;5049870;28;20474;-47
2022/04/18 09:07:35;;;;;;;2.95;2.35;;;;;;;24.28;nan;101814.81;5051398;28;20029;-50
2022/04/18 09:10:00;;;;;;;4.55;2.10;;;;;;;24.66;nan;101844.25;5049675;28;20048;-55
2022/04/18 09:12:29;;;;;;;2.95;2.22;;;;;;;24.52;nan;101847.94;5049906;28;20048;-55
2022/04/18 09:14:55;;;;;;;2.55;2.00;;;;;;;24.84;nan;101842.84;5052167;28;20091;-51
2022/04/18 09:17:31;;;;;;;2.80;2.20;;;;;;;;;;5055176;28;20024;-54
2022/04/18 09:20:06;;;;;;;7.70;6.90;;;;;;;;;;5055642;28;20116;-58
2022/04/18 09:22:39;;;;;;;3.22;2.10;;;;;;;;;;5055182;28;20033;-54
2022/04/18 09:25:11;;;;;;;2.65;2.10;;;;;;;;;;5054817;28;20075;-54
2022/04/18 09:27:36;;;;;;;2.72;2.53;;;;;;;;;;5054567;28;20032;-55
2022/04/18 09:30:11;;;;;;;3.03;2.60;;;;;;;;;;5053998;28;20167;-53
2022/04/18 09:32:40;;;;;;;2.17;1.98;;;;;;;;;;5054989;28;20029;-53
2022/04/18 09:35:06;;;;;;;3.10;2.33;;;;;;;;;;5054608;28;20066;-54
2022/04/18 09:37:32;;;;;;;2.78;2.25;;;;;;;;;;5055303;28;20116;-55
2022/04/18 09:39:57;;;;;;;2.13;1.95;;;;;;;;;;5055015;28;20044;-54
2022/04/18 09:42:27;;;;;;;1.73;1.63;;;;;;;;;;5054727;28;20037;-57
2022/04/18 09:44:52;;;;;;;2.70;2.08;;;;;;;;;;5054810;28;20130;-54
2022/04/18 09:47:18;;;;;;;2.38;2.13;;;;;;;;;;5054037;28;20486;-56
2022/04/18 09:49:44;;;;;;;3.35;2.08;;;;;;;;;;5054139;28;20122;-53
2022/04/18 09:52:11;;;;;;;2.85;2.20;;;;;;;;;;5054147;28;20053;-57
2022/04/18 09:54:52;;;;;;;1.73;1.58;;;;;;;;;;5052585;28;20482;-55
2022/04/18 09:57:25;;;;;;;4.32;2.17;;;;;;;;;;5054803;28;20359;-57
2022/04/18 09:59:51;;;;;;;2.63;2.15;;;;;;;;;;5054752;28;20102;-52
2022/04/18 10:02:17;;;;;;;1.90;1.75;;;;;;;;;;5054572;28;20409;-57
2022/04/18 10:04:42;;;;;;;1.98;1.70;;;;;;;;;;5054325;28;20035;-54
2022/04/18 10:07:09;;;;;;;1.45;1.35;;;;;;;;;;5053126;28;20121;-58
2022/04/18 10:09:36;;;;;;;2.60;2.00;;;;;;;;;;5054564;28;20119;-55
2022/04/18 10:12:03;;;;;;;2.22;2.03;;;;;;;;;;5054561;28;20033;-55
2022/04/18 10:14:28;;;;;;;2.35;1.70;;;;;;;;;;5054416;28;20099;-54
2022/04/18 10:16:54;;;;;;;1.97;1.43;;;;;;;;;;5054565;28;20033;-56
2022/04/18 10:19:20;;;;;;;2.30;2.00;;;;;;;;;;5054343;28;20060;-56
2022/04/18 10:21:47;;;;;;;2.72;1.90;;;;;;;;;;5054200;28;20512;-55
2022/04/18 10:24:27;;;;;;;2.30;2.10;;;;;;;;;;5054641;28;20039;-55
2022/04/18 10:27:07;;;;;;;4.05;2.42;;;;;;;;;;5054184;28;20036;-54
2022/04/18 10:29:36;;;;;;;3.95;2.45;;;;;;;;;;5054162;28;20029;-55
2022/04/18 10:32:03;;;;;;;2.38;2.17;;;;;;;;;;5053840;28;20056;-56
2022/04/18 10:34:31;;;;;;;2.35;2.13;;;;;;;;;;5053938;28;20029;-56
2022/04/18 10:36:57;;;;;;;3.08;2.00;;;;;;;29.25;nan;101821.81;5054006;28;20033;-56
2022/04/18 10:39:32;;;;;;;1.40;1.30;;;;;;;29.61;nan;101825.56;5052724;28;20037;-55
2022/04/18 10:41:59;;;;;;;2.53;1.75;;;;;;;;;;5052870;28;20035;-54
2022/04/18 10:44:32;;;;;;;2.03;1.55;;;;;;;;;;5053936;28;20083;-57
2022/04/18 10:47:01;;;;;;;2.15;1.55;;;;;;;;;;5053634;28;20036;-57
2022/04/18 10:49:33;;;;;;;4.07;2.10;;;;;;;29.84;nan;101794.34;5053916;28;20063;-55
2022/04/18 10:52:09;;;;;;;1.40;1.30;;;;;;;30.00;nan;101815.41;5052770;28;20045;-55
2022/04/18 10:54:35;;;;;;;1.77;1.60;;;;;;;30.23;nan;101789.53;5053732;28;20045;-57
2022/04/18 10:57:06;;;;;;;2.35;2.15;;;;;;;30.60;nan;101806.56;5052239;28;20033;-56
2022/04/18 10:59:42;;;;;;;2.15;1.52;;;;;;;30.89;nan;101770.09;5053517;28;20032;-57
2022/04/18 11:02:07;;;;;;;3.75;1.60;;;;;;;31.37;nan;101867.56;5053681;28;20044;-57
2022/04/18 11:04:39;;;;;;;1.92;1.60;;;;;;;31.37;nan;101807.69;5052302;28;20029;-59
2022/04/18 11:07:06;;;;;;;2.35;1.67;;;;;;;31.18;nan;101803.31;5053175;28;20457;-55
2022/04/18 11:09:52;;;;;;;1.75;1.65;;;;;;;31.02;nan;101809.50;5053267;28;20029;-55
2022/04/18 11:12:19;;;;;;;1.60;1.40;;;;;;;30.96;nan;101777.53;5052916;28;20045;-51
2022/04/18 11:14:47;;;;;;;2.58;1.70;;;;;;;31.11;nan;101810.44;5053488;28;20041;-51
2022/04/18 11:17:16;;;;;;;1.65;1.55;;;;;;;30.86;nan;101771.28;5053429;28;20024;-53
2022/04/18 11:19:42;;;;;;;1.60;1.40;;;;;;;31.15;nan;101798.19;5035197;28;20508;-53
2022/04/18 11:22:24;;;;;;;1.95;1.80;;;;;;;30.84;nan;101765.16;5051439;28;20037;-52
2022/04/18 11:24:51;;;;;;;3.08;1.67;;;;;;;31.50;nan;101809.00;5053170;28;20028;-53
2022/04/18 11:27:17;;;;;;;2.92;1.45;;;;;;;32.06;nan;101811.13;5052847;28;20035;-53
2022/04/18 11:29:45;;;;;;;2.42;1.50;;;;;;;31.80;nan;101804.03;5053034;28;20044;-54
2022/04/18 11:32:19;;;;;;;1.88;1.67;;;;;;;31.70;nan;101804.16;5052958;28;20405;-49
2022/04/18 11:34:49;;;;;;;2.13;1.33;;;;;;;31.69;nan;101797.00;5051526;28;20029;-58
2022/04/18 11:37:26;;;;;;;1.63;1.23;;;;;;;30.98;nan;101769.19;5051246;28;20051;-56
2022/04/18 11:39:56;;;;;;;1.58;1.40;;;;;;;31.29;nan;101766.84;5051707;28;20497;-52
2022/04/18 11:42:24;;;;;;;3.45;2.33;;;;;;;31.29;nan;101775.84;5052545;28;20389;-58
2022/04/18 11:44:54;;;;;;;3.17;1.80;;;;;;;31.19;nan;101765.09;5052674;28;20454;-54
2022/04/18 11:47:22;;;;;;;1.50;1.40;;;;;;;31.25;nan;101760.00;5052570;28;20036;-57
2022/04/18 11:49:50;;;;;;;2.95;1.60;;;;;;;31.40;nan;101753.81;5052623;28;20119;-53
2022/04/18 11:52:21;;;;;;;2.03;1.83;;;;;;;31.96;nan;101802.19;5052797;28;20104;-54
2022/04/18 11:55:17;;;;;;;2.22;2.03;;;;;;;32.02;nan;101792.59;5052446;28;20075;-54
2022/04/18 11:57:47;;;;;;;2.53;2.20;;;;;;;32.04;nan;101763.28;5051052;28;20056;-54
2022/04/18 12:00:14;;;;;;;2.35;2.15;;;;;;;32.60;nan;101770.72;5052584;28;20447;-52
2022/04/18 12:08:18;;;;;;;2.75;1.48;;;;;;;32.43;nan;101774.44;5050986;28;20405;-52
2022/04/18 12:10:45;;;;;;;1.80;1.70;;;;;;;32.44;nan;101770.66;5052263;28;20037;-53
2022/04/18 12:13:13;;;;;;;1.48;1.38;;;;;;;32.42;nan;101778.16;5051104;28;20037;-50
2022/04/18 12:15:43;;;;;;;1.90;1.77;;;;;;;32.88;nan;101774.78;5051110;28;20044;-53
2022/04/18 12:18:10;;;;;;;1.77;1.67;;;;;;;33.01;nan;101725.19;5050783;28;20035;-54
2022/04/18 12:20:40;;;;;;;2.70;1.63;;;;;;;32.87;nan;101718.53;5052019;28;20029;-56
2022/04/18 12:23:05;;;;;;;2.13;1.70;;;;;;;33.17;nan;101774.25;5050552;28;20120;-56
2022/04/18 12:25:32;;;;;;;1.85;1.60;;;;;;;33.22;nan;101763.66;5052198;28;20439;-57
2022/04/18 12:27:59;;;;;;;2.35;1.98;;;;;;;32.51;nan;101725.38;5033917;28;20055;-57